Time;durP1;ratioP1;P1;durP2;ratioP2;P2;SDS_P1;SDS_P2;PMS_P1;PMS_P2;Temp;Humidity;BMP_temperature;BMP_pressure;BME280_temperature;BME280_humidity;BME280_pressure;Samples;Min_cycle;Max_cycle;Signal;HPM_P1;HPM_P2
2023/08/02 00:02:11;;;;;;;5.20;4.70;;;21.80;83.10;;;;;;5015969;28;20026;-80
2023/08/02 00:04:36;;;;;;;5.07;4.60;;;21.70;83.20;;;;;;5015317;28;20026;-80
2023/08/02 00:07:03;;;;;;;4.85;4.45;;;21.80;83.50;;;;;;4998352;28;20433;-80
2023/08/02 00:09:28;;;;;;;4.90;4.40;;;21.70;83.60;;;;;;5014183;28;20436;-80
2023/08/02 00:11:54;;;;;;;5.20;4.70;;;21.70;83.90;;;;;;5015589;28;20026;-80
2023/08/02 00:14:20;;;;;;;6.63;5.15;;;21.70;83.80;;;;;;4998078;28;20040;-80
2023/08/02 00:16:45;;;;;;;5.53;5.03;;;21.60;84.10;;;;;;4997795;28;20026;-80
2023/08/02 00:19:11;;;;;;;5.35;4.85;;;21.60;84.10;;;;;;5015076;28;20022;-80
2023/08/02 00:21:37;;;;;;;5.63;5.13;;;21.60;84.10;;;;;;5015176;28;20072;-80
2023/08/02 00:24:03;;;;;;;5.82;5.18;;;21.60;84.30;;;;;;4997609;28;20029;-81
2023/08/02 00:26:28;;;;;;;6.38;5.70;;;21.60;84.40;;;;;;5013871;28;20030;-81
2023/08/02 00:28:54;;;;;;;5.82;5.18;;;21.60;84.60;;;;;;5013826;28;20030;-81
2023/08/02 00:31:20;;;;;;;6.00;5.40;;;21.60;84.70;;;;;;5015220;28;20304;-81
2023/08/02 00:33:46;;;;;;;6.18;5.57;;;21.60;84.80;;;;;;4997543;28;20494;-81
2023/08/02 00:36:11;;;;;;;5.88;5.32;;;21.50;84.90;;;;;;4997613;28;20041;-81
2023/08/02 00:38:37;;;;;;;5.95;5.18;;;21.50;85.20;;;;;;4997700;28;20109;-81
2023/08/02 00:41:04;;;;;;;5.88;5.18;;;21.50;85.40;;;;;;5015284;28;20049;-81
2023/08/02 00:43:36;;;;;;;6.28;5.43;;;21.50;85.60;;;;;;5012534;28;20018;-81
2023/08/02 00:46:02;;;;;;;5.90;5.40;;;21.40;85.70;;;;;;4997426;28;20037;-80
2023/08/02 00:48:28;;;;;;;7.20;6.50;;;21.40;85.70;;;;;;4996729;28;20401;-80
2023/08/02 00:50:54;;;;;;;7.13;6.43;;;21.40;85.80;;;;;;5014615;28;20037;-80
2023/08/02 00:53:21;;;;;;;7.65;6.95;;;21.40;85.80;;;;;;4996851;28;20061;-80
2023/08/02 00:55:49;;;;;;;9.43;6.97;;;21.40;86.10;;;;;;4996433;28;20456;-80
2023/08/02 00:58:14;;;;;;;7.75;6.70;;;21.40;86.00;;;;;;5013682;28;20026;-81
2023/08/02 01:00:40;;;;;;;9.73;7.78;;;21.40;85.90;;;;;;4996804;28;20044;-81
2023/08/02 01:03:06;;;;;;;7.45;6.68;;;21.30;85.70;;;;;;5013097;28;20026;-80
2023/08/02 01:05:39;;;;;;;7.10;6.43;;;21.40;85.80;;;;;;5014357;28;20050;-80
2023/08/02 01:08:10;;;;;;;7.40;6.70;;;21.40;85.80;;;;;;5014657;28;20018;-80
2023/08/02 01:10:41;;;;;;;7.88;7.07;;;21.40;85.80;;;;;;5014247;28;20450;-80
2023/08/02 01:13:07;;;;;;;;;;;21.40;86.10;;;;;;5013632;28;20044;-80
2023/08/02 01:15:34;;;;;;;7.10;5.82;;;21.30;85.70;;;;;;5015358;28;19906;-80
2023/08/02 01:18:00;;;;;;;6.78;6.18;;;21.30;86.00;;;;;;5014834;28;20030;-80
2023/08/02 01:20:26;;;;;;;6.90;6.20;;;21.30;86.50;;;;;;4996357;28;20122;-81
2023/08/02 01:22:52;;;;;;;7.60;6.72;;;21.30;85.80;;;;;;4997077;28;20097;-81
2023/08/02 01:25:18;;;;;;;8.15;7.35;;;21.30;85.90;;;;;;5013490;28;20060;-81
2023/08/02 01:28:08;;;;;;;6.90;6.20;;;21.30;86.60;;;;;;5014411;28;20026;-81
2023/08/02 01:30:38;;;;;;;7.85;7.07;;;21.30;85.60;;;;;;5014970;28;20514;-81
2023/08/02 01:33:04;;;;;;;7.88;7.18;;;21.30;85.70;;;;;;5014464;28;20038;-81
2023/08/02 01:35:30;;;;;;;7.38;6.68;;;21.30;85.90;;;;;;4996432;28;20556;-81
2023/08/02 01:37:56;;;;;;;8.02;7.32;;;21.30;86.00;;;;;;5014800;28;20033;-81
2023/08/02 01:40:22;;;;;;;7.78;6.97;;;21.30;86.10;;;;;;5014535;28;20103;-81
2023/08/02 01:42:48;;;;;;;8.00;7.18;;;21.30;86.20;;;;;;4997159;28;20496;-81
2023/08/02 01:45:13;;;;;;;8.05;7.25;;;21.30;85.90;;;;;;5014771;28;20030;-81
2023/08/02 01:47:39;;;;;;;8.20;7.40;;;21.30;85.60;;;;;;5013362;28;20028;-81
2023/08/02 01:50:05;;;;;;;8.77;7.88;;;21.30;85.70;;;;;;5014122;28;20030;-80
2023/08/02 01:52:31;;;;;;;9.10;8.15;;;21.30;85.50;;;;;;5014590;28;20036;-80
2023/08/02 01:54:56;;;;;;;9.18;8.38;;;21.30;85.50;;;;;;5014095;28;20049;-81
2023/08/02 01:57:22;;;;;;;8.90;8.10;;;21.30;85.30;;;;;;5013181;28;20385;-81
2023/08/02 01:59:48;;;;;;;9.35;8.50;;;21.30;85.40;;;;;;4997001;28;20482;-81
2023/08/02 02:02:13;;;;;;;8.68;7.78;;;21.30;85.40;;;;;;5000056;28;20125;-81
2023/08/02 02:04:39;;;;;;;7.53;6.82;;;21.30;85.50;;;;;;5016462;28;20029;-81
2023/08/02 02:07:05;;;;;;;7.03;6.35;;;21.30;85.60;;;;;;5017155;28;20363;-81
2023/08/02 02:09:30;;;;;;;7.75;7.05;;;21.30;85.80;;;;;;5000342;28;20485;-81
2023/08/02 02:11:56;;;;;;;7.38;6.40;;;21.30;85.90;;;;;;5018074;28;20105;-80
2023/08/02 02:14:21;;;;;;;8.02;7.18;;;21.30;86.20;;;;;;5000259;28;20125;-80
2023/08/02 02:16:47;;;;;;;7.80;7.00;;;21.30;86.40;;;;;;5000042;28;20030;-80
2023/08/02 02:19:13;;;;;;;7.53;6.82;;;21.30;87.10;;;;;;5016736;28;20033;-80
2023/08/02 02:21:38;;;;;;;8.43;7.28;;;21.30;86.60;;;;;;4997968;28;20213;-81
2023/08/02 02:24:04;;;;;;;8.05;7.35;;;21.30;86.70;;;;;;5015272;28;20120;-81
2023/08/02 02:26:30;;;;;;;9.32;8.43;;;21.30;86.40;;;;;;4998700;28;20713;-81
2023/08/02 02:28:55;;;;;;;9.13;8.30;;;21.20;85.90;;;;;;5016449;28;20030;-81
2023/08/02 02:31:21;;;;;;;8.70;7.90;;;21.20;85.80;;;;;;4999192;28;20064;-81
2023/08/02 02:33:47;;;;;;;8.63;7.82;;;21.20;85.60;;;;;;5015872;28;20454;-81
2023/08/02 02:36:12;;;;;;;8.18;7.38;;;21.20;85.70;;;;;;5013484;28;20132;-81
2023/08/02 02:38:38;;;;;;;7.95;7.22;;;21.20;85.60;;;;;;5014975;28;20105;-80
2023/08/02 02:41:03;;;;;;;7.50;6.80;;;21.10;85.70;;;;;;4997463;28;20029;-80
2023/08/02 02:43:29;;;;;;;7.68;6.88;;;21.20;85.80;;;;;;4993872;28;20360;-80
2023/08/02 02:45:55;;;;;;;7.55;6.85;;;21.10;85.60;;;;;;4995344;28;20121;-80
2023/08/02 02:48:20;;;;;;;7.80;7.10;;;21.10;85.50;;;;;;4993577;28;20568;-80
2023/08/02 02:50:46;;;;;;;7.55;6.85;;;21.10;85.40;;;;;;4995730;28;20125;-80
2023/08/02 02:53:12;;;;;;;6.88;6.18;;;21.10;85.20;;;;;;4996971;28;20331;-80
2023/08/02 02:55:37;;;;;;;6.63;5.88;;;21.10;85.30;;;;;;4997400;28;20086;-80
2023/08/02 02:58:03;;;;;;;7.30;6.57;;;21.10;85.40;;;;;;4995431;28;20038;-80
2023/08/02 03:00:31;;;;;;;6.35;5.75;;;21.10;85.60;;;;;;4997265;28;20030;-81
2023/08/02 03:02:56;;;;;;;7.13;6.22;;;21.10;85.50;;;;;;4995793;28;20025;-81
2023/08/02 03:05:22;;;;;;;7.22;6.53;;;21.10;85.50;;;;;;4996552;28;20034;-81
2023/08/02 03:07:47;;;;;;;7.18;6.47;;;21.20;85.50;;;;;;4996804;28;20450;-81
2023/08/02 03:10:13;;;;;;;8.30;7.50;;;21.10;85.40;;;;;;4995040;28;20121;-81
2023/08/02 03:12:39;;;;;;;8.40;7.60;;;21.20;85.40;;;;;;4978551;28;20427;-80
2023/08/02 03:15:05;;;;;;;8.65;7.78;;;21.20;85.40;;;;;;4979713;28;20399;-81
2023/08/02 03:17:31;;;;;;;8.57;7.65;;;21.20;85.20;;;;;;4994020;28;20038;-81
2023/08/02 03:19:56;;;;;;;9.00;8.15;;;21.20;85.10;;;;;;4996545;28;20468;-80
2023/08/02 03:22:22;;;;;;;8.52;7.53;;;21.30;84.90;;;;;;4995224;28;20026;-80
2023/08/02 03:24:48;;;;;;;7.85;7.15;;;21.30;84.90;;;;;;4995592;28;20030;-80
2023/08/02 03:27:13;;;;;;;8.57;7.30;;;21.40;85.00;;;;;;4995421;28;20026;-81
2023/08/02 03:29:39;;;;;;;8.13;7.32;;;21.50;85.00;;;;;;4995378;28;20034;-81
2023/08/02 03:32:05;;;;;;;8.15;7.35;;;21.60;85.20;;;;;;4979252;28;20462;-80
2023/08/02 03:34:31;;;;;;;7.93;7.13;;;21.70;85.00;;;;;;4995400;28;20038;-80
2023/08/02 03:36:56;;;;;;;8.10;7.30;;;21.80;84.80;;;;;;4979308;28;20034;-81
2023/08/02 03:39:26;;;;;;;9.30;7.22;;;21.90;84.80;;;;;;4996855;28;20053;-81
2023/08/02 03:41:53;;;;;;;7.55;6.75;;;22.00;84.60;;;;;;4995371;28;20049;-80
2023/08/02 03:44:19;;;;;;;7.72;6.97;;;22.10;84.70;;;;;;4996747;28;20546;-81
2023/08/02 03:46:44;;;;;;;7.90;7.20;;;22.30;84.60;;;;;;4996919;28;20034;-81
2023/08/02 03:49:10;;;;;;;7.53;6.82;;;22.50;85.10;;;;;;4995330;28;20065;-81
2023/08/02 03:51:35;;;;;;;8.10;7.30;;;22.60;83.70;;;;;;4995495;28;20455;-81
2023/08/02 03:54:03;;;;;;;7.95;7.25;;;22.80;83.20;;;;;;4995178;28;20038;-80
2023/08/02 03:56:29;;;;;;;8.48;7.63;;;23.00;83.00;;;;;;4996781;28;20026;-81
2023/08/02 03:58:55;;;;;;;8.13;7.35;;;23.20;83.00;;;;;;4995205;28;20037;-81
2023/08/02 04:01:21;;;;;;;7.47;6.78;;;23.50;82.50;;;;;;4996578;28;20026;-81
2023/08/02 04:03:47;;;;;;;7.07;6.40;;;23.80;82.10;;;;;;4994877;28;20065;-81
2023/08/02 04:06:13;;;;;;;7.05;6.35;;;24.30;81.80;;;;;;4995382;28;20642;-81
2023/08/02 04:08:38;;;;;;;6.55;5.95;;;24.80;80.70;;;;;;4995392;28;20023;-81
2023/08/02 04:11:05;;;;;;;7.28;6.55;;;25.60;79.10;;;;;;4994151;28;20169;-81
2023/08/02 04:13:31;;;;;;;6.00;5.40;;;26.40;76.80;;;;;;4995487;28;20144;-81
2023/08/02 04:15:57;;;;;;;6.07;5.13;;;27.30;74.80;;;;;;4994700;28;20395;-81
2023/08/02 04:18:23;;;;;;;6.40;5.80;;;28.20;72.90;;;;;;4977962;28;20026;-81
2023/08/02 04:20:48;;;;;;;6.63;5.63;;;29.10;70.80;;;;;;4993429;28;20507;-81
2023/08/02 04:23:14;;;;;;;6.65;5.70;;;30.00;68.90;;;;;;4995146;28;20026;-81
2023/08/02 04:25:40;;;;;;;6.00;5.43;;;30.70;67.00;;;;;;4993498;28;20062;-81
2023/08/02 04:28:06;;;;;;;7.72;6.03;;;31.40;65.30;;;;;;4993971;28;20041;-82
2023/08/02 04:30:32;;;;;;;6.10;5.47;;;32.00;62.90;;;;;;4999298;28;20078;-82
2023/08/02 04:32:57;;;;;;;6.90;6.20;;;32.20;61.20;;;;;;4999101;28;20061;-82
2023/08/02 04:35:23;;;;;;;6.90;6.20;;;32.00;60.50;;;;;;5002029;28;20053;-82
2023/08/02 04:37:49;;;;;;;5.97;5.38;;;32.10;60.40;;;;;;5001744;28;20395;-79
2023/08/02 04:40:15;;;;;;;6.95;5.32;;;32.40;60.70;;;;;;4992102;28;20423;-79
2023/08/02 04:42:41;;;;;;;6.20;5.35;;;32.90;60.20;;;;;;4991108;28;20027;-79
2023/08/02 04:45:08;;;;;;;5.47;4.97;;;33.30;59.50;;;;;;4997199;28;20026;-80
2023/08/02 04:47:33;;;;;;;6.50;5.88;;;33.50;59.10;;;;;;4974639;28;20022;-80
2023/08/02 04:50:00;;;;;;;5.55;4.88;;;33.80;58.70;;;;;;4991944;28;20526;-79
2023/08/02 04:52:25;;;;;;;6.25;5.45;;;34.20;58.40;;;;;;4991288;28;20026;-79
2023/08/02 04:54:51;;;;;;;7.28;6.38;;;34.70;57.40;;;;;;4973296;28;20022;-79
2023/08/02 04:57:16;;;;;;;8.40;6.05;;;35.00;56.50;;;;;;4989785;28;20034;-80
2023/08/02 04:59:42;;;;;;;7.30;5.95;;;35.10;56.40;;;;;;4992058;28;20019;-78
2023/08/02 05:02:08;;;;;;;7.32;6.53;;;35.30;55.90;;;;;;4991618;28;20042;-81
2023/08/02 05:04:36;;;;;;;6.57;5.63;;;35.60;55.30;;;;;;4992853;28;20054;-79
2023/08/02 05:07:02;;;;;;;6.20;5.25;;;35.90;55.40;;;;;;4992679;28;20483;-77
2023/08/02 05:09:28;;;;;;;6.43;5.78;;;36.20;53.90;;;;;;4993928;28;20057;-80
2023/08/02 05:11:54;;;;;;;7.70;5.85;;;36.10;53.20;;;;;;4991929;28;20073;-79
2023/08/02 05:14:20;;;;;;;7.88;6.45;;;35.80;53.10;;;;;;5007746;28;20076;-79
2023/08/02 05:16:46;;;;;;;14.52;9.85;;;35.40;53.30;;;;;;5010470;28;20022;-78
2023/08/02 05:19:12;;;;;;;15.23;10.50;;;34.90;53.50;;;;;;5013302;28;20021;-78
2023/08/02 05:21:37;;;;;;;14.93;10.38;;;34.30;54.00;;;;;;5011619;28;20062;-81
2023/08/02 05:24:03;;;;;;;18.40;11.45;;;33.70;54.50;;;;;;5013291;28;20050;-82
2023/08/02 05:26:29;;;;;;;18.92;12.40;;;33.10;55.20;;;;;;5013323;28;20022;-81
2023/08/02 05:28:54;;;;;;;18.88;12.32;;;32.60;56.00;;;;;;5007654;28;20033;-81
2023/08/02 05:31:20;;;;;;;14.77;10.75;;;32.30;56.60;;;;;;4999051;28;20062;-81
2023/08/02 05:33:46;;;;;;;21.92;14.07;;;32.20;56.80;;;;;;5014732;28;20293;-80
2023/08/02 05:36:12;;;;;;;23.65;15.43;;;32.20;56.50;;;;;;4993882;28;20310;-81
2023/08/02 05:38:38;;;;;;;31.40;20.33;;;32.20;56.50;;;;;;5008183;28;20029;-81
2023/08/02 05:41:04;;;;;;;56.65;32.50;;;32.10;56.50;;;;;;4989734;28;20058;-79
2023/08/02 05:43:30;;;;;;;41.75;22.90;;;31.90;56.30;;;;;;5013608;28;20025;-79
2023/08/02 05:45:56;;;;;;;38.53;23.45;;;31.70;56.60;;;;;;5015221;28;20014;-79
2023/08/02 05:48:23;;;;;;;26.58;17.05;;;31.40;57.00;;;;;;5031688;28;20026;-79
2023/08/02 05:50:49;;;;;;;21.30;12.85;;;31.10;57.50;;;;;;5008950;28;20057;-79
2023/08/02 05:53:14;;;;;;;13.15;9.73;;;30.80;58.10;;;;;;5014619;28;20034;-80
2023/08/02 05:55:40;;;;;;;12.75;9.35;;;30.50;58.50;;;;;;5009879;28;20391;-79
2023/08/02 05:58:06;;;;;;;10.35;7.60;;;30.30;59.10;;;;;;4990500;28;20030;-80
2023/08/02 06:00:32;;;;;;;13.80;9.13;;;30.00;59.40;;;;;;5014103;28;20030;-80
2023/08/02 06:02:57;;;;;;;10.13;8.20;;;29.90;59.90;;;;;;5008366;28;20019;-79
2023/08/02 06:05:23;;;;;;;9.98;7.95;;;29.70;60.20;;;;;;4991532;28;20276;-81
2023/08/02 06:07:48;;;;;;;9.45;7.20;;;29.50;60.60;;;;;;5011738;28;20085;-79
2023/08/02 06:10:14;;;;;;;11.13;8.48;;;29.40;61.20;;;;;;5004041;28;20058;-80
2023/08/02 06:12:40;;;;;;;11.18;7.82;;;29.20;61.50;;;;;;5006516;28;20042;-79
2023/08/02 06:15:06;;;;;;;23.88;13.95;;;29.20;61.60;;;;;;5005859;28;20026;-79
2023/08/02 06:17:32;;;;;;;19.65;12.20;;;29.10;62.20;;;;;;5015982;28;20048;-78
2023/08/02 06:19:59;;;;;;;28.80;17.63;;;29.00;62.20;;;;;;5021554;28;20022;-79
2023/08/02 06:22:24;;;;;;;20.42;13.57;;;28.90;62.60;;;;;;5012735;28;20030;-79
2023/08/02 06:24:50;;;;;;;18.05;11.95;;;28.80;62.60;;;;;;4997105;28;20049;-79
2023/08/02 06:27:16;;;;;;;11.45;7.70;;;28.80;62.80;;;;;;5005023;28;20022;-78
2023/08/02 06:29:41;;;;;;;7.65;5.93;;;28.80;62.80;;;;;;4998839;28;20034;-78
2023/08/02 06:32:07;;;;;;;6.20;5.40;;;28.80;62.70;;;;;;4983845;28;20065;-80
2023/08/02 06:34:33;;;;;;;7.63;5.90;;;28.80;62.60;;;;;;5001371;28;20029;-79
2023/08/02 06:36:59;;;;;;;5.75;5.22;;;28.80;62.20;;;;;;4984100;28;20034;-80
2023/08/02 06:39:24;;;;;;;6.85;5.95;;;28.80;62.50;;;;;;4984812;28;20038;-79
2023/08/02 06:41:50;;;;;;;5.93;5.25;;;28.70;62.60;;;;;;4985068;28;20423;-79
2023/08/02 06:44:16;;;;;;;6.50;5.72;;;28.70;62.30;;;;;;5000473;28;20390;-79
2023/08/02 06:46:41;;;;;;;8.98;7.82;;;28.60;62.30;;;;;;4991520;28;20025;-75
2023/08/02 06:49:07;;;;;;;16.08;11.60;;;28.60;62.60;;;;;;5012316;28;20029;-76
2023/08/02 06:51:33;;;;;;;11.93;10.20;;;28.50;63.40;;;;;;4993377;28;20026;-75
2023/08/02 06:53:58;;;;;;;20.30;14.18;;;28.40;63.90;;;;;;4993178;28;20105;-77
2023/08/02 06:56:24;;;;;;;22.25;15.65;;;28.40;64.20;;;;;;4999978;28;20072;-76
2023/08/02 06:58:50;;;;;;;25.13;17.23;;;28.30;64.20;;;;;;5013058;28;20038;-76
2023/08/02 07:01:19;;;;;;;23.63;15.20;;;28.20;64.30;;;;;;5010650;28;20060;-75
2023/08/02 07:03:45;;;;;;;18.70;13.98;;;28.10;64.60;;;;;;5007450;28;20054;-76
2023/08/02 07:06:14;;;;;;;17.55;13.18;;;28.10;65.30;;;;;;4995695;28;20092;-76
2023/08/02 07:08:41;;;;;;;11.18;10.07;;;28.00;66.00;;;;;;4995567;28;20033;-77
2023/08/02 07:11:07;;;;;;;11.23;9.82;;;27.90;66.00;;;;;;4995941;28;20510;-76
2023/08/02 07:13:36;;;;;;;9.57;8.38;;;27.90;66.40;;;;;;5010472;28;20037;-76
2023/08/02 07:16:02;;;;;;;10.20;8.88;;;27.80;66.70;;;;;;5005553;28;20029;-75
2023/08/02 07:18:27;;;;;;;8.80;6.80;;;27.70;67.00;;;;;;5007269;28;20022;-75
2023/08/02 07:20:53;;;;;;;7.57;6.88;;;27.70;67.10;;;;;;4989266;28;20041;-76
2023/08/02 07:23:19;;;;;;;7.35;6.65;;;27.70;67.30;;;;;;4981519;28;20030;-76
2023/08/02 07:25:45;;;;;;;7.97;7.18;;;27.60;67.50;;;;;;4992417;28;20045;-76
2023/08/02 07:28:10;;;;;;;7.57;6.88;;;27.60;67.90;;;;;;4996096;28;20022;-76
2023/08/02 07:30:36;;;;;;;6.90;6.30;;;27.50;68.00;;;;;;4983825;28;20434;-75
2023/08/02 07:33:02;;;;;;;8.38;7.38;;;27.50;68.30;;;;;;4998633;28;20046;-75
2023/08/02 07:35:27;;;;;;;7.65;6.95;;;27.40;68.40;;;;;;5003967;28;20025;-75
2023/08/02 07:37:53;;;;;;;7.32;6.63;;;27.40;68.70;;;;;;5000917;28;20034;-76
2023/08/02 07:40:18;;;;;;;7.40;6.70;;;27.40;69.00;;;;;;5001588;28;20025;-76
2023/08/02 07:42:44;;;;;;;7.35;6.72;;;27.30;69.30;;;;;;5005791;28;20111;-77
2023/08/02 07:45:11;;;;;;;8.30;7.38;;;27.30;69.50;;;;;;4980766;28;20085;-76
2023/08/02 07:47:38;;;;;;;7.80;7.10;;;27.20;70.00;;;;;;4982118;28;20022;-76
2023/08/02 07:50:05;;;;;;;7.18;6.53;;;27.20;69.80;;;;;;4998156;28;20044;-75
2023/08/02 07:52:31;;;;;;;7.43;6.72;;;27.20;70.00;;;;;;4997324;28;20544;-75
2023/08/02 07:54:57;;;;;;;6.82;6.22;;;27.20;70.10;;;;;;5000526;28;20026;-76
2023/08/02 07:57:25;;;;;;;7.50;6.78;;;27.10;70.20;;;;;;4998973;28;20121;-75
2023/08/02 07:59:52;;;;;;;7.82;7.13;;;27.10;70.40;;;;;;4998114;28;20034;-75
2023/08/02 08:02:19;;;;;;;7.47;6.78;;;27.10;70.70;;;;;;5000790;28;20077;-75
2023/08/02 08:04:44;;;;;;;7.90;6.47;;;27.00;70.70;;;;;;4997324;28;20477;-75
2023/08/02 08:07:10;;;;;;;7.28;6.68;;;27.00;70.90;;;;;;4996318;28;20125;-76
2023/08/02 08:09:36;;;;;;;8.18;7.32;;;27.00;71.00;;;;;;4997710;28;21677;-75
2023/08/02 08:12:05;;;;;;;7.13;6.50;;;27.10;71.20;;;;;;4999727;28;20033;-75
2023/08/02 08:14:32;;;;;;;7.55;6.85;;;27.00;71.50;;;;;;4987326;28;20030;-77
2023/08/02 08:16:58;;;;;;;7.80;7.10;;;27.00;71.30;;;;;;4997670;28;20036;-76
2023/08/02 08:19:25;;;;;;;6.57;5.97;;;27.00;71.30;;;;;;5002027;28;20101;-75
2023/08/02 08:21:51;;;;;;;6.90;6.30;;;27.00;71.60;;;;;;4990401;28;20034;-76
2023/08/02 08:24:17;;;;;;;7.72;7.03;;;26.90;71.90;;;;;;5008992;28;20022;-74
2023/08/02 08:26:42;;;;;;;7.65;6.95;;;26.90;72.00;;;;;;4985088;28;20076;-75
2023/08/02 08:29:08;;;;;;;8.27;7.47;;;27.00;72.10;;;;;;5002394;28;20025;-74
2023/08/02 08:31:34;;;;;;;7.03;6.32;;;26.90;71.80;;;;;;5001824;28;20450;-74
2023/08/02 08:33:59;;;;;;;6.65;6.05;;;26.90;71.90;;;;;;4998905;28;20057;-74
2023/08/02 08:36:28;;;;;;;6.88;6.28;;;26.90;72.10;;;;;;4992963;28;20033;-80
2023/08/02 08:38:54;;;;;;;6.10;5.60;;;26.90;72.10;;;;;;5013101;28;20041;-80
2023/08/02 08:41:20;;;;;;;6.60;6.00;;;26.90;72.10;;;;;;4991720;28;20026;-79
2023/08/02 08:43:45;;;;;;;7.60;6.90;;;26.90;72.30;;;;;;4994030;28;20619;-80
2023/08/02 08:46:15;;;;;;;7.85;6.50;;;26.90;72.30;;;;;;4986339;28;20034;-80
2023/08/02 08:48:41;;;;;;;7.05;6.35;;;27.00;72.50;;;;;;5006839;28;20157;-79
2023/08/02 08:51:09;;;;;;;7.85;7.05;;;26.90;72.40;;;;;;4993741;28;20034;-80
2023/08/02 08:53:36;;;;;;;6.57;5.97;;;26.90;72.60;;;;;;4982582;28;20030;-80
2023/08/02 08:56:04;;;;;;;6.65;6.07;;;26.90;72.40;;;;;;5003799;28;20029;-80
2023/08/02 08:58:36;;;;;;;5.70;5.20;;;26.90;73.00;;;;;;4994380;28;20046;-80
2023/08/02 09:01:05;;;;;;;6.15;5.55;;;26.90;73.20;;;;;;5010987;28;20034;-80
2023/08/02 09:03:35;;;;;;;6.90;6.30;;;26.80;73.20;;;;;;5007254;28;20057;-81
2023/08/02 09:06:01;;;;;;;6.88;6.28;;;26.80;73.00;;;;;;5012263;28;20037;-81
2023/08/02 09:08:27;;;;;;;7.32;6.63;;;26.80;73.30;;;;;;4996213;28;20026;-81
2023/08/02 09:10:53;;;;;;;6.72;6.10;;;26.70;73.40;;;;;;5002328;28;20036;-81
2023/08/02 09:13:24;;;;;;;6.53;5.82;;;26.70;73.40;;;;;;4989242;28;20026;-81
2023/08/02 09:16:13;;;;;;;5.95;5.35;;;26.70;73.20;;;;;;4990973;28;20033;-80
2023/08/02 09:18:47;;;;;;;6.38;5.78;;;26.80;73.40;;;;;;5004872;28;20067;-80
2023/08/02 09:21:15;;;;;;;6.65;6.05;;;26.70;73.40;;;;;;4996368;28;20076;-80
2023/08/02 09:23:58;;;;;;;5.78;5.28;;;26.70;73.10;;;;;;5008155;28;20034;-79
2023/08/02 09:26:24;;;;;;;6.50;5.90;;;26.80;73.50;;;;;;5008099;28;20461;-79
2023/08/02 09:29:19;;;;;;;7.20;6.50;;;26.80;73.80;;;;;;5003705;28;20029;-79
2023/08/02 09:31:52;;;;;;;7.50;6.80;;;26.80;73.30;;;;;;4991359;28;20124;-80
2023/08/02 09:34:18;;;;;;;8.63;5.82;;;26.70;73.50;;;;;;5002366;28;20376;-80
2023/08/02 09:36:44;;;;;;;7.07;6.25;;;26.60;73.40;;;;;;5004273;28;20117;-80
2023/08/02 09:39:13;;;;;;;6.75;6.07;;;26.60;73.60;;;;;;4998312;28;20129;-80
2023/08/02 09:41:39;;;;;;;7.10;6.40;;;26.60;74.20;;;;;;5011767;28;20100;-80
2023/08/02 09:44:06;;;;;;;6.78;6.07;;;26.60;73.10;;;;;;5008576;28;20476;-80
2023/08/02 09:46:34;;;;;;;7.60;6.80;;;26.50;72.70;;;;;;4996487;28;20084;-80
2023/08/02 09:49:01;;;;;;;7.07;6.40;;;26.40;73.20;;;;;;5002803;28;20034;-80
2023/08/02 09:51:41;;;;;;;6.25;5.65;;;26.40;73.00;;;;;;4999153;28;20080;-81
2023/08/02 09:54:08;;;;;;;6.63;6.03;;;26.40;72.70;;;;;;4990260;28;20445;-77
2023/08/02 09:56:35;;;;;;;6.50;5.90;;;26.30;72.90;;;;;;4995374;28;20101;-77
2023/08/02 09:59:02;;;;;;;6.28;5.68;;;26.20;72.90;;;;;;4983441;28;20059;-79
2023/08/02 10:01:29;;;;;;;6.65;6.00;;;26.20;73.30;;;;;;4991901;28;20116;-78
2023/08/02 10:03:58;;;;;;;7.65;6.22;;;26.20;73.50;;;;;;5007775;28;20022;-80
2023/08/02 10:06:49;;;;;;;7.32;6.28;;;26.20;73.60;;;;;;4998163;28;20113;-81
2023/08/02 10:09:19;;;;;;;7.13;6.43;;;26.20;74.50;;;;;;5007541;28;20043;-81
2023/08/02 10:11:53;;;;;;;6.82;6.13;;;26.10;74.10;;;;;;5008872;28;20034;-81
2023/08/02 10:14:19;;;;;;;6.63;6.03;;;26.10;74.10;;;;;;5010758;28;20086;-81
2023/08/02 10:16:46;;;;;;;6.88;6.20;;;26.10;74.30;;;;;;4987753;28;20038;-80
2023/08/02 10:19:12;;;;;;;6.20;5.60;;;26.10;74.60;;;;;;4998467;28;20394;-79
2023/08/02 10:21:39;;;;;;;6.95;5.63;;;26.10;74.40;;;;;;4995234;28;20118;-77
2023/08/02 10:24:05;;;;;;;6.32;5.72;;;26.10;74.60;;;;;;4999860;28;20080;-77
2023/08/02 10:26:32;;;;;;;6.85;6.13;;;26.10;74.90;;;;;;5002375;28;20029;-78
2023/08/02 10:28:59;;;;;;;7.82;6.18;;;26.10;74.90;;;;;;4995972;28;20022;-77
2023/08/02 10:31:26;;;;;;;6.63;6.00;;;26.10;74.80;;;;;;5006169;28;20042;-78
2023/08/02 10:33:52;;;;;;;6.25;5.65;;;26.10;74.90;;;;;;5008689;28;20390;-78
2023/08/02 10:36:17;;;;;;;6.80;6.10;;;26.10;75.40;;;;;;4999134;28;20030;-81
2023/08/02 10:38:43;;;;;;;7.30;6.60;;;26.00;75.80;;;;;;5003780;28;20029;-81
2023/08/02 10:41:18;;;;;;;7.07;5.97;;;26.00;76.20;;;;;;4987935;28;20040;-81
2023/08/02 10:43:57;;;;;;;6.93;6.28;;;26.00;76.20;;;;;;5010662;28;20026;-82
2023/08/02 10:46:27;;;;;;;7.65;6.95;;;26.00;77.10;;;;;;4992783;28;20034;-80
2023/08/02 10:49:13;;;;;;;7.45;6.75;;;26.00;76.60;;;;;;5009384;28;20022;-82
2023/08/02 10:51:39;;;;;;;8.32;7.50;;;26.00;77.70;;;;;;5012006;28;20036;-81
2023/08/02 10:54:25;;;;;;;7.22;6.53;;;25.90;77.00;;;;;;4993941;28;20081;-81
2023/08/02 10:56:51;;;;;;;8.25;7.40;;;25.90;77.20;;;;;;4985985;28;20089;-79
2023/08/02 10:59:18;;;;;;;7.50;6.80;;;25.80;77.40;;;;;;4990322;28;21321;-81
2023/08/02 11:02:12;;;;;;;8.20;7.50;;;25.80;77.10;;;;;;4996337;28;20498;-79
2023/08/02 11:04:44;;;;;;;7.35;6.60;;;25.80;76.70;;;;;;5010707;28;20815;-80
2023/08/02 11:07:16;;;;;;;7.85;7.15;;;25.80;76.80;;;;;;4994668;28;20142;-80
2023/08/02 11:09:42;;;;;;;8.48;6.93;;;25.80;77.10;;;;;;4987988;28;20093;-80
2023/08/02 11:12:16;;;;;;;7.03;6.43;;;25.80;77.40;;;;;;5000943;28;20040;-79
2023/08/02 11:14:44;;;;;;;8.48;7.70;;;25.80;76.90;;;;;;5002788;28;20124;-80
2023/08/02 11:17:11;;;;;;;7.60;6.80;;;25.80;77.10;;;;;;5001757;28;20037;-79
2023/08/02 11:19:37;;;;;;;7.70;7.00;;;25.80;77.00;;;;;;5006550;28;20481;-80
2023/08/02 11:22:03;;;;;;;7.80;7.10;;;25.80;77.00;;;;;;5002231;28;20085;-80
2023/08/02 11:24:43;;;;;;;7.55;6.85;;;25.80;77.30;;;;;;5005966;28;20442;-81
2023/08/02 11:27:09;;;;;;;7.97;7.17;;;25.80;77.00;;;;;;4991783;28;20094;-79
2023/08/02 11:29:34;;;;;;;8.60;7.80;;;25.80;76.90;;;;;;5005572;28;20029;-79
2023/08/02 11:32:04;;;;;;;8.55;7.75;;;25.80;77.20;;;;;;5014882;28;20046;-79
2023/08/02 11:34:35;;;;;;;8.45;7.72;;;25.80;77.20;;;;;;5006824;28;20038;-80
2023/08/02 11:37:01;;;;;;;8.98;8.18;;;25.80;77.10;;;;;;5003713;28;20041;-80
2023/08/02 11:39:27;;;;;;;8.73;7.97;;;25.80;77.30;;;;;;4991439;28;20042;-80
2023/08/02 11:42:04;;;;;;;8.73;7.95;;;25.80;76.90;;;;;;4999929;28;20022;-80
2023/08/02 11:44:29;;;;;;;8.50;7.80;;;25.80;76.90;;;;;;4983936;28;20479;-80
2023/08/02 11:46:56;;;;;;;8.35;7.65;;;25.80;77.60;;;;;;5006166;28;20084;-80
2023/08/02 11:49:23;;;;;;;9.23;7.72;;;25.80;76.70;;;;;;5000237;28;20033;-80
2023/08/02 11:51:49;;;;;;;9.88;8.20;;;25.80;77.10;;;;;;4988648;28;20027;-80
2023/08/02 11:54:15;;;;;;;8.13;7.32;;;25.80;77.90;;;;;;5002591;28;20030;-79
2023/08/02 11:56:41;;;;;;;8.52;7.75;;;25.80;77.60;;;;;;4997258;28;20060;-81
2023/08/02 11:59:11;;;;;;;8.75;7.95;;;25.90;77.50;;;;;;5002674;28;20053;-80
2023/08/02 12:01:41;;;;;;;8.13;7.43;;;25.90;78.30;;;;;;4989785;28;20049;-80
2023/08/02 12:04:08;;;;;;;14.63;8.90;;;25.90;78.80;;;;;;5003639;28;20022;-80
2023/08/02 12:06:51;;;;;;;9.45;8.55;;;25.90;79.20;;;;;;5003261;28;20035;-80
2023/08/02 12:09:18;;;;;;;8.68;7.85;;;25.90;78.60;;;;;;5011612;28;20036;-80
2023/08/02 12:11:45;;;;;;;9.30;7.95;;;25.90;78.60;;;;;;5009412;28;20034;-80
2023/08/02 12:14:11;;;;;;;9.63;8.65;;;25.90;78.70;;;;;;5001944;28;20042;-80
2023/08/02 12:16:41;;;;;;;9.02;8.15;;;25.80;79.00;;;;;;5000851;28;20038;-81
2023/08/02 12:19:08;;;;;;;8.25;7.45;;;25.90;78.90;;;;;;4996765;28;20025;-80
2023/08/02 12:21:33;;;;;;;8.85;7.82;;;25.80;78.80;;;;;;5006687;28;20026;-80
2023/08/02 12:23:59;;;;;;;7.95;7.25;;;25.90;78.10;;;;;;4996050;28;20029;-80
2023/08/02 12:26:33;;;;;;;8.15;7.18;;;26.00;77.20;;;;;;5011933;28;20057;-81
2023/08/02 12:29:00;;;;;;;11.60;7.63;;;26.00;76.80;;;;;;4987544;28;20359;-80
2023/08/02 12:31:26;;;;;;;7.40;6.70;;;26.00;75.60;;;;;;4993209;28;20041;-80
2023/08/02 12:33:52;;;;;;;6.97;6.38;;;26.00;74.90;;;;;;5006985;28;20055;-80
2023/08/02 12:36:28;;;;;;;7.28;6.63;;;26.00;74.50;;;;;;4998250;28;20431;-80
2023/08/02 12:38:56;;;;;;;7.72;6.35;;;26.10;74.20;;;;;;5007245;28;20022;-80
2023/08/02 12:41:23;;;;;;;6.85;6.18;;;26.10;74.30;;;;;;4992587;28;20037;-81
2023/08/02 12:43:49;;;;;;;12.90;7.38;;;26.20;74.40;;;;;;5015108;28;20045;-80
2023/08/02 12:46:16;;;;;;;7.20;6.35;;;26.20;73.90;;;;;;5001384;28;20037;-80